sensor_id;sensor_type;location;lat;lon;timestamp;P1;durP1;ratioP1;P2;durP2;ratioP2
20545;SDS011;10431;50.228;9.112;2023-06-26T00:00:32;7.05;;;6.35;;
20545;SDS011;10431;50.228;9.112;2023-06-26T00:02:58;8.57;;;6.35;;
20545;SDS011;10431;50.228;9.112;2023-06-26T00:05:24;8.43;;;6.38;;
20545;SDS011;10431;50.228;9.112;2023-06-26T00:07:53;6.90;;;5.68;;
20545;SDS011;10431;50.228;9.112;2023-06-26T00:10:19;6.85;;;5.80;;
20545;SDS011;10431;50.228;9.112;2023-06-26T00:12:45;8.75;;;6.40;;
20545;SDS011;10431;50.228;9.112;2023-06-26T00:15:11;10.45;;;6.45;;
20545;SDS011;10431;50.228;9.112;2023-06-26T00:17:38;7.63;;;6.18;;
20545;SDS011;10431;50.228;9.112;2023-06-26T00:20:04;7.60;;;6.80;;
20545;SDS011;10431;50.228;9.112;2023-06-26T00:22:38;7.22;;;6.50;;
20545;SDS011;10431;50.228;9.112;2023-06-26T00:25:07;7.93;;;6.15;;
20545;SDS011;10431;50.228;9.112;2023-06-26T00:27:33;7.35;;;6.40;;
20545;SDS011;10431;50.228;9.112;2023-06-26T00:29:59;7.93;;;6.53;;
20545;SDS011;10431;50.228;9.112;2023-06-26T00:32:25;6.63;;;5.93;;
20545;SDS011;10431;50.228;9.112;2023-06-26T00:34:51;8.57;;;6.43;;
20545;SDS011;10431;50.228;9.112;2023-06-26T00:37:18;8.25;;;5.97;;
20545;SDS011;10431;50.228;9.112;2023-06-26T00:39:45;7.10;;;6.40;;
20545;SDS011;10431;50.228;9.112;2023-06-26T00:42:11;8.02;;;6.20;;
20545;SDS011;10431;50.228;9.112;2023-06-26T00:44:37;7.05;;;6.35;;
20545;SDS011;10431;50.228;9.112;2023-06-26T00:47:03;7.00;;;5.65;;
20545;SDS011;10431;50.228;9.112;2023-06-26T00:49:30;6.68;;;5.97;;
20545;SDS011;10431;50.228;9.112;2023-06-26T00:51:56;6.97;;;5.88;;
20545;SDS011;10431;50.228;9.112;2023-06-26T00:54:23;6.55;;;5.80;;
20545;SDS011;10431;50.228;9.112;2023-06-26T00:56:50;7.25;;;6.53;;
20545;SDS011;10431;50.228;9.112;2023-06-26T00:59:16;7.05;;;6.35;;
20545;SDS011;10431;50.228;9.112;2023-06-26T01:01:42;7.68;;;6.20;;
20545;SDS011;10431;50.228;9.112;2023-06-26T01:04:09;7.03;;;6.28;;
20545;SDS011;10431;50.228;9.112;2023-06-26T01:06:46;8.45;;;6.50;;
20545;SDS011;10431;50.228;9.112;2023-06-26T01:09:17;6.95;;;6.20;;
20545;SDS011;10431;50.228;9.112;2023-06-26T01:11:45;7.65;;;6.28;;
20545;SDS011;10431;50.228;9.112;2023-06-26T01:14:12;7.10;;;6.40;;
20545;SDS011;10431;50.228;9.112;2023-06-26T01:16:38;8.30;;;5.95;;
20545;SDS011;10431;50.228;9.112;2023-06-26T01:19:09;7.90;;;5.55;;
20545;SDS011;10431;50.228;9.112;2023-06-26T01:21:40;7.90;;;6.45;;
20545;SDS011;10431;50.228;9.112;2023-06-26T01:24:16;6.85;;;5.72;;
20545;SDS011;10431;50.228;9.112;2023-06-26T01:26:48;7.22;;;5.97;;
20545;SDS011;10431;50.228;9.112;2023-06-26T01:29:16;7.38;;;6.38;;
20545;SDS011;10431;50.228;9.112;2023-06-26T01:31:43;7.38;;;5.97;;
20545;SDS011;10431;50.228;9.112;2023-06-26T01:34:14;8.65;;;5.78;;
20545;SDS011;10431;50.228;9.112;2023-06-26T01:36:42;10.45;;;6.53;;
20545;SDS011;10431;50.228;9.112;2023-06-26T01:39:10;7.95;;;6.00;;
20545;SDS011;10431;50.228;9.112;2023-06-26T01:41:38;6.75;;;6.03;;
20545;SDS011;10431;50.228;9.112;2023-06-26T01:47:01;6.70;;;6.00;;
20545;SDS011;10431;50.228;9.112;2023-06-26T01:52:23;7.57;;;6.38;;
20545;SDS011;10431;50.228;9.112;2023-06-26T01:57:42;7.18;;;5.80;;
20545;SDS011;10431;50.228;9.112;2023-06-26T02:00:16;7.55;;;5.80;;
20545;SDS011;10431;50.228;9.112;2023-06-26T02:02:46;8.20;;;6.07;;
20545;SDS011;10431;50.228;9.112;2023-06-26T02:05:13;6.40;;;5.80;;
20545;SDS011;10431;50.228;9.112;2023-06-26T02:07:39;7.72;;;6.45;;
20545;SDS011;10431;50.228;9.112;2023-06-26T02:10:06;7.40;;;5.82;;
20545;SDS011;10431;50.228;9.112;2023-06-26T02:12:33;7.63;;;6.15;;
20545;SDS011;10431;50.228;9.112;2023-06-26T02:15:01;9.30;;;6.50;;
20545;SDS011;10431;50.228;9.112;2023-06-26T02:17:28;6.78;;;6.07;;
20545;SDS011;10431;50.228;9.112;2023-06-26T02:19:54;7.38;;;5.57;;
20545;SDS011;10431;50.228;9.112;2023-06-26T02:22:21;8.23;;;6.10;;
20545;SDS011;10431;50.228;9.112;2023-06-26T02:24:47;7.47;;;5.65;;
20545;SDS011;10431;50.228;9.112;2023-06-26T02:27:13;8.30;;;5.80;;
20545;SDS011;10431;50.228;9.112;2023-06-26T02:29:40;8.35;;;6.00;;
20545;SDS011;10431;50.228;9.112;2023-06-26T02:32:07;9.98;;;6.40;;
20545;SDS011;10431;50.228;9.112;2023-06-26T02:34:34;6.68;;;5.97;;
20545;SDS011;10431;50.228;9.112;2023-06-26T02:37:01;7.55;;;6.18;;
20545;SDS011;10431;50.228;9.112;2023-06-26T02:39:27;8.48;;;5.93;;
20545;SDS011;10431;50.228;9.112;2023-06-26T02:41:54;7.15;;;5.95;;
20545;SDS011;10431;50.228;9.112;2023-06-26T02:44:22;7.03;;;5.85;;
20545;SDS011;10431;50.228;9.112;2023-06-26T02:46:48;7.50;;;5.60;;
20545;SDS011;10431;50.228;9.112;2023-06-26T02:49:15;10.18;;;6.25;;
20545;SDS011;10431;50.228;9.112;2023-06-26T02:51:41;6.85;;;6.00;;
20545;SDS011;10431;50.228;9.112;2023-06-26T02:54:17;7.18;;;5.82;;
20545;SDS011;10431;50.228;9.112;2023-06-26T02:56:45;6.55;;;5.55;;
20545;SDS011;10431;50.228;9.112;2023-06-26T02:59:11;9.07;;;6.25;;
20545;SDS011;10431;50.228;9.112;2023-06-26T03:01:38;7.50;;;5.57;;
20545;SDS011;10431;50.228;9.112;2023-06-26T03:04:04;6.82;;;5.70;;
20545;SDS011;10431;50.228;9.112;2023-06-26T03:06:31;11.55;;;6.35;;
20545;SDS011;10431;50.228;9.112;2023-06-26T03:08:57;7.55;;;5.80;;
20545;SDS011;10431;50.228;9.112;2023-06-26T03:11:23;11.60;;;6.50;;
20545;SDS011;10431;50.228;9.112;2023-06-26T03:13:49;13.35;;;6.68;;
20545;SDS011;10431;50.228;9.112;2023-06-26T03:16:16;7.47;;;6.13;;
20545;SDS011;10431;50.228;9.112;2023-06-26T03:18:42;10.32;;;6.13;;
20545;SDS011;10431;50.228;9.112;2023-06-26T03:21:08;9.30;;;6.15;;
20545;SDS011;10431;50.228;9.112;2023-06-26T03:23:35;7.38;;;5.70;;
20545;SDS011;10431;50.228;9.112;2023-06-26T03:26:01;10.70;;;6.55;;
20545;SDS011;10431;50.228;9.112;2023-06-26T03:28:32;11.10;;;6.25;;
20545;SDS011;10431;50.228;9.112;2023-06-26T03:30:58;8.52;;;5.97;;
20545;SDS011;10431;50.228;9.112;2023-06-26T03:33:25;9.05;;;6.20;;
20545;SDS011;10431;50.228;9.112;2023-06-26T03:35:52;11.57;;;6.22;;
20545;SDS011;10431;50.228;9.112;2023-06-26T03:38:19;7.53;;;5.97;;
20545;SDS011;10431;50.228;9.112;2023-06-26T03:40:47;11.75;;;6.57;;
20545;SDS011;10431;50.228;9.112;2023-06-26T03:43:13;9.95;;;6.10;;
20545;SDS011;10431;50.228;9.112;2023-06-26T03:45:49;13.10;;;6.70;;
20545;SDS011;10431;50.228;9.112;2023-06-26T03:48:15;12.52;;;6.40;;
20545;SDS011;10431;50.228;9.112;2023-06-26T03:50:41;10.75;;;5.88;;
20545;SDS011;10431;50.228;9.112;2023-06-26T03:53:07;11.20;;;6.20;;
20545;SDS011;10431;50.228;9.112;2023-06-26T03:55:33;12.85;;;6.30;;
20545;SDS011;10431;50.228;9.112;2023-06-26T03:58:00;12.40;;;6.80;;
20545;SDS011;10431;50.228;9.112;2023-06-26T04:00:26;13.65;;;6.68;;
20545;SDS011;10431;50.228;9.112;2023-06-26T04:02:53;10.27;;;6.32;;
20545;SDS011;10431;50.228;9.112;2023-06-26T04:05:20;11.32;;;6.47;;
20545;SDS011;10431;50.228;9.112;2023-06-26T04:07:49;12.38;;;6.05;;
20545;SDS011;10431;50.228;9.112;2023-06-26T04:10:18;11.40;;;6.78;;
20545;SDS011;10431;50.228;9.112;2023-06-26T04:12:47;11.00;;;6.50;;
20545;SDS011;10431;50.228;9.112;2023-06-26T04:15:13;11.82;;;6.95;;
20545;SDS011;10431;50.228;9.112;2023-06-26T04:17:40;10.85;;;6.70;;
20545;SDS011;10431;50.228;9.112;2023-06-26T04:20:06;10.68;;;6.53;;
20545;SDS011;10431;50.228;9.112;2023-06-26T04:22:33;7.95;;;6.43;;
20545;SDS011;10431;50.228;9.112;2023-06-26T04:25:03;8.52;;;6.78;;
20545;SDS011;10431;50.228;9.112;2023-06-26T04:27:29;8.73;;;6.38;;
20545;SDS011;10431;50.228;9.112;2023-06-26T04:29:58;10.70;;;6.75;;
20545;SDS011;10431;50.228;9.112;2023-06-26T04:32:24;10.70;;;6.38;;
20545;SDS011;10431;50.228;9.112;2023-06-26T04:34:51;8.40;;;5.93;;
20545;SDS011;10431;50.228;9.112;2023-06-26T04:37:17;10.63;;;6.43;;
20545;SDS011;10431;50.228;9.112;2023-06-26T04:39:43;11.75;;;6.70;;
20545;SDS011;10431;50.228;9.112;2023-06-26T04:42:09;13.27;;;6.75;;
20545;SDS011;10431;50.228;9.112;2023-06-26T04:44:37;11.25;;;6.72;;
20545;SDS011;10431;50.228;9.112;2023-06-26T04:47:04;11.57;;;6.68;;
20545;SDS011;10431;50.228;9.112;2023-06-26T04:49:30;8.90;;;6.57;;
20545;SDS011;10431;50.228;9.112;2023-06-26T04:51:56;11.27;;;6.47;;
20545;SDS011;10431;50.228;9.112;2023-06-26T04:54:25;11.00;;;6.60;;
20545;SDS011;10431;50.228;9.112;2023-06-26T04:56:53;10.38;;;6.45;;
20545;SDS011;10431;50.228;9.112;2023-06-26T04:59:19;15.35;;;6.63;;
20545;SDS011;10431;50.228;9.112;2023-06-26T05:01:45;9.88;;;6.55;;
20545;SDS011;10431;50.228;9.112;2023-06-26T05:04:13;10.73;;;6.82;;
20545;SDS011;10431;50.228;9.112;2023-06-26T05:06:41;9.90;;;7.05;;
20545;SDS011;10431;50.228;9.112;2023-06-26T05:09:07;12.48;;;7.68;;
20545;SDS011;10431;50.228;9.112;2023-06-26T05:11:33;14.40;;;7.55;;
20545;SDS011;10431;50.228;9.112;2023-06-26T05:13:59;11.23;;;8.00;;
20545;SDS011;10431;50.228;9.112;2023-06-26T05:16:25;12.23;;;7.60;;
20545;SDS011;10431;50.228;9.112;2023-06-26T05:18:51;12.75;;;7.85;;
20545;SDS011;10431;50.228;9.112;2023-06-26T05:21:19;12.02;;;7.72;;
20545;SDS011;10431;50.228;9.112;2023-06-26T05:23:46;12.50;;;7.55;;
20545;SDS011;10431;50.228;9.112;2023-06-26T05:26:12;9.55;;;7.78;;
20545;SDS011;10431;50.228;9.112;2023-06-26T05:28:39;10.77;;;8.07;;
20545;SDS011;10431;50.228;9.112;2023-06-26T05:31:06;14.45;;;7.88;;
20545;SDS011;10431;50.228;9.112;2023-06-26T05:33:33;13.40;;;8.60;;
20545;SDS011;10431;50.228;9.112;2023-06-26T05:36:01;10.27;;;7.88;;
20545;SDS011;10431;50.228;9.112;2023-06-26T05:38:29;11.05;;;8.20;;
20545;SDS011;10431;50.228;9.112;2023-06-26T05:40:56;13.07;;;8.60;;
20545;SDS011;10431;50.228;9.112;2023-06-26T05:43:22;10.95;;;8.40;;
20545;SDS011;10431;50.228;9.112;2023-06-26T05:45:49;10.32;;;8.38;;
20545;SDS011;10431;50.228;9.112;2023-06-26T05:48:15;11.10;;;8.93;;
20545;SDS011;10431;50.228;9.112;2023-06-26T05:50:41;12.25;;;8.38;;
20545;SDS011;10431;50.228;9.112;2023-06-26T05:53:09;12.13;;;8.38;;
20545;SDS011;10431;50.228;9.112;2023-06-26T05:55:35;10.88;;;8.00;;
20545;SDS011;10431;50.228;9.112;2023-06-26T05:58:02;13.15;;;8.57;;
20545;SDS011;10431;50.228;9.112;2023-06-26T06:00:28;12.00;;;8.40;;
20545;SDS011;10431;50.228;9.112;2023-06-26T06:02:55;10.65;;;8.20;;
20545;SDS011;10431;50.228;9.112;2023-06-26T06:05:21;10.65;;;8.02;;
20545;SDS011;10431;50.228;9.112;2023-06-26T06:07:48;9.60;;;8.40;;
20545;SDS011;10431;50.228;9.112;2023-06-26T06:10:16;10.15;;;8.10;;
20545;SDS011;10431;50.228;9.112;2023-06-26T06:12:42;11.60;;;8.23;;
20545;SDS011;10431;50.228;9.112;2023-06-26T06:15:09;13.63;;;8.32;;
20545;SDS011;10431;50.228;9.112;2023-06-26T06:17:37;9.35;;;7.68;;
20545;SDS011;10431;50.228;9.112;2023-06-26T06:20:03;8.60;;;7.68;;
20545;SDS011;10431;50.228;9.112;2023-06-26T06:22:30;11.10;;;8.48;;
20545;SDS011;10431;50.228;9.112;2023-06-26T06:24:56;10.55;;;8.23;;
20545;SDS011;10431;50.228;9.112;2023-06-26T06:27:22;8.38;;;7.53;;
20545;SDS011;10431;50.228;9.112;2023-06-26T06:29:48;11.48;;;8.35;;
20545;SDS011;10431;50.228;9.112;2023-06-26T06:32:14;12.23;;;8.02;;
20545;SDS011;10431;50.228;9.112;2023-06-26T06:34:41;11.13;;;7.32;;
20545;SDS011;10431;50.228;9.112;2023-06-26T06:37:07;9.23;;;8.15;;
20545;SDS011;10431;50.228;9.112;2023-06-26T06:39:33;8.05;;;7.20;;
20545;SDS011;10431;50.228;9.112;2023-06-26T06:41:59;9.20;;;7.72;;
20545;SDS011;10431;50.228;9.112;2023-06-26T06:44:25;10.40;;;8.23;;
20545;SDS011;10431;50.228;9.112;2023-06-26T06:46:52;8.57;;;7.68;;
20545;SDS011;10431;50.228;9.112;2023-06-26T06:49:18;10.50;;;7.90;;
20545;SDS011;10431;50.228;9.112;2023-06-26T06:51:44;11.40;;;7.70;;
20545;SDS011;10431;50.228;9.112;2023-06-26T06:54:10;10.75;;;8.27;;
20545;SDS011;10431;50.228;9.112;2023-06-26T06:56:37;8.50;;;7.63;;
20545;SDS011;10431;50.228;9.112;2023-06-26T06:59:03;9.30;;;7.70;;
20545;SDS011;10431;50.228;9.112;2023-06-26T07:01:29;9.68;;;8.25;;
20545;SDS011;10431;50.228;9.112;2023-06-26T07:03:55;8.68;;;7.78;;
20545;SDS011;10431;50.228;9.112;2023-06-26T07:06:21;11.88;;;7.90;;
20545;SDS011;10431;50.228;9.112;2023-06-26T07:08:48;10.55;;;7.85;;
20545;SDS011;10431;50.228;9.112;2023-06-26T07:11:14;12.02;;;8.30;;
20545;SDS011;10431;50.228;9.112;2023-06-26T07:13:40;10.93;;;7.78;;
20545;SDS011;10431;50.228;9.112;2023-06-26T07:16:06;8.80;;;7.90;;
20545;SDS011;10431;50.228;9.112;2023-06-26T07:18:33;9.95;;;8.68;;
20545;SDS011;10431;50.228;9.112;2023-06-26T07:20:59;11.20;;;7.90;;
20545;SDS011;10431;50.228;9.112;2023-06-26T07:23:25;10.35;;;8.13;;
20545;SDS011;10431;50.228;9.112;2023-06-26T07:25:52;10.95;;;8.10;;
20545;SDS011;10431;50.228;9.112;2023-06-26T07:28:18;9.10;;;7.57;;
20545;SDS011;10431;50.228;9.112;2023-06-26T07:30:44;11.68;;;8.30;;
20545;SDS011;10431;50.228;9.112;2023-06-26T07:33:11;9.82;;;7.95;;
20545;SDS011;10431;50.228;9.112;2023-06-26T07:35:37;9.15;;;7.78;;
20545;SDS011;10431;50.228;9.112;2023-06-26T07:38:03;8.90;;;7.30;;
20545;SDS011;10431;50.228;9.112;2023-06-26T07:40:30;8.23;;;7.40;;
20545;SDS011;10431;50.228;9.112;2023-06-26T07:42:56;11.57;;;7.82;;
20545;SDS011;10431;50.228;9.112;2023-06-26T07:45:23;10.70;;;7.72;;
20545;SDS011;10431;50.228;9.112;2023-06-26T07:47:50;12.00;;;7.63;;
20545;SDS011;10431;50.228;9.112;2023-06-26T07:50:16;10.23;;;7.20;;
20545;SDS011;10431;50.228;9.112;2023-06-26T07:52:47;10.15;;;7.43;;
20545;SDS011;10431;50.228;9.112;2023-06-26T07:55:13;10.23;;;7.75;;
20545;SDS011;10431;50.228;9.112;2023-06-26T07:57:39;10.80;;;7.30;;
20545;SDS011;10431;50.228;9.112;2023-06-26T08:00:05;9.93;;;7.57;;
20545;SDS011;10431;50.228;9.112;2023-06-26T08:02:39;9.10;;;7.50;;
20545;SDS011;10431;50.228;9.112;2023-06-26T08:05:06;8.88;;;7.15;;
20545;SDS011;10431;50.228;9.112;2023-06-26T08:07:32;9.15;;;7.47;;
20545;SDS011;10431;50.228;9.112;2023-06-26T08:09:58;11.25;;;7.75;;
20545;SDS011;10431;50.228;9.112;2023-06-26T08:12:24;16.30;;;7.75;;
20545;SDS011;10431;50.228;9.112;2023-06-26T08:14:50;17.52;;;7.53;;
20545;SDS011;10431;50.228;9.112;2023-06-26T08:17:17;14.45;;;7.53;;
20545;SDS011;10431;50.228;9.112;2023-06-26T08:19:43;15.10;;;7.25;;
20545;SDS011;10431;50.228;9.112;2023-06-26T08:22:09;9.27;;;7.55;;
20545;SDS011;10431;50.228;9.112;2023-06-26T08:24:35;13.00;;;7.50;;
20545;SDS011;10431;50.228;9.112;2023-06-26T08:27:02;9.95;;;6.93;;
20545;SDS011;10431;50.228;9.112;2023-06-26T08:29:29;12.55;;;7.72;;
20545;SDS011;10431;50.228;9.112;2023-06-26T08:31:55;10.93;;;7.97;;
20545;SDS011;10431;50.228;9.112;2023-06-26T08:34:21;10.68;;;7.13;;
20545;SDS011;10431;50.228;9.112;2023-06-26T08:36:47;10.90;;;7.15;;
20545;SDS011;10431;50.228;9.112;2023-06-26T08:39:13;10.25;;;7.00;;
20545;SDS011;10431;50.228;9.112;2023-06-26T08:41:40;12.15;;;7.47;;
20545;SDS011;10431;50.228;9.112;2023-06-26T08:44:06;9.40;;;7.35;;
20545;SDS011;10431;50.228;9.112;2023-06-26T08:46:32;9.80;;;7.22;;
20545;SDS011;10431;50.228;9.112;2023-06-26T08:49:13;10.80;;;7.25;;
20545;SDS011;10431;50.228;9.112;2023-06-26T08:51:50;9.65;;;7.20;;
20545;SDS011;10431;50.228;9.112;2023-06-26T08:54:22;10.57;;;7.15;;
20545;SDS011;10431;50.228;9.112;2023-06-26T08:56:56;8.35;;;6.93;;
20545;SDS011;10431;50.228;9.112;2023-06-26T08:59:24;11.40;;;6.72;;
20545;SDS011;10431;50.228;9.112;2023-06-26T09:01:50;13.75;;;7.15;;
20545;SDS011;10431;50.228;9.112;2023-06-26T09:04:17;11.15;;;7.07;;
20545;SDS011;10431;50.228;9.112;2023-06-26T09:06:43;7.60;;;6.85;;
20545;SDS011;10431;50.228;9.112;2023-06-26T09:09:10;8.15;;;6.40;;
20545;SDS011;10431;50.228;9.112;2023-06-26T09:11:36;10.32;;;6.80;;
20545;SDS011;10431;50.228;9.112;2023-06-26T09:14:02;10.88;;;6.75;;
20545;SDS011;10431;50.228;9.112;2023-06-26T09:16:33;8.07;;;7.28;;
20545;SDS011;10431;50.228;9.112;2023-06-26T09:19:08;11.77;;;6.97;;
20545;SDS011;10431;50.228;9.112;2023-06-26T09:21:38;11.18;;;7.00;;
20545;SDS011;10431;50.228;9.112;2023-06-26T09:24:07;12.95;;;7.25;;
20545;SDS011;10431;50.228;9.112;2023-06-26T09:26:37;10.20;;;6.57;;
20545;SDS011;10431;50.228;9.112;2023-06-26T09:29:05;7.88;;;6.65;;
20545;SDS011;10431;50.228;9.112;2023-06-26T09:31:32;11.93;;;6.85;;
20545;SDS011;10431;50.228;9.112;2023-06-26T09:34:03;8.93;;;6.93;;
20545;SDS011;10431;50.228;9.112;2023-06-26T09:36:29;8.80;;;6.72;;
20545;SDS011;10431;50.228;9.112;2023-06-26T09:39:02;8.93;;;6.68;;
20545;SDS011;10431;50.228;9.112;2023-06-26T09:41:30;10.73;;;6.57;;
20545;SDS011;10431;50.228;9.112;2023-06-26T09:43:57;11.70;;;6.68;;
20545;SDS011;10431;50.228;9.112;2023-06-26T09:46:28;9.05;;;7.00;;
20545;SDS011;10431;50.228;9.112;2023-06-26T09:49:06;7.90;;;6.60;;
20545;SDS011;10431;50.228;9.112;2023-06-26T09:51:37;8.55;;;6.65;;
20545;SDS011;10431;50.228;9.112;2023-06-26T09:54:05;8.20;;;6.65;;
20545;SDS011;10431;50.228;9.112;2023-06-26T09:56:32;7.35;;;6.50;;
20545;SDS011;10431;50.228;9.112;2023-06-26T09:58:59;9.02;;;6.57;;
20545;SDS011;10431;50.228;9.112;2023-06-26T10:01:27;7.65;;;6.18;;
20545;SDS011;10431;50.228;9.112;2023-06-26T10:03:55;8.80;;;6.65;;
20545;SDS011;10431;50.228;9.112;2023-06-26T10:06:28;7.63;;;6.75;;
20545;SDS011;10431;50.228;9.112;2023-06-26T10:08:55;9.90;;;6.43;;
20545;SDS011;10431;50.228;9.112;2023-06-26T10:11:24;7.82;;;6.47;;
20545;SDS011;10431;50.228;9.112;2023-06-26T10:13:55;9.60;;;6.03;;
20545;SDS011;10431;50.228;9.112;2023-06-26T10:16:24;7.38;;;6.00;;
20545;SDS011;10431;50.228;9.112;2023-06-26T10:18:55;7.47;;;6.22;;
20545;SDS011;10431;50.228;9.112;2023-06-26T10:21:26;9.98;;;6.78;;
20545;SDS011;10431;50.228;9.112;2023-06-26T10:23:55;8.95;;;6.15;;
20545;SDS011;10431;50.228;9.112;2023-06-26T10:26:24;10.70;;;6.63;;
20545;SDS011;10431;50.228;9.112;2023-06-26T10:28:52;12.98;;;8.15;;
20545;SDS011;10431;50.228;9.112;2023-06-26T10:31:23;14.57;;;8.85;;
20545;SDS011;10431;50.228;9.112;2023-06-26T10:33:52;19.13;;;9.30;;
20545;SDS011;10431;50.228;9.112;2023-06-26T10:36:19;16.13;;;9.23;;
20545;SDS011;10431;50.228;9.112;2023-06-26T10:38:53;14.35;;;8.90;;
20545;SDS011;10431;50.228;9.112;2023-06-26T10:41:22;12.35;;;9.38;;
20545;SDS011;10431;50.228;9.112;2023-06-26T10:44:05;22.73;;;9.45;;
20545;SDS011;10431;50.228;9.112;2023-06-26T10:46:52;18.33;;;9.55;;
20545;SDS011;10431;50.228;9.112;2023-06-26T10:49:20;17.38;;;9.57;;
20545;SDS011;10431;50.228;9.112;2023-06-26T10:51:50;19.88;;;9.57;;
20545;SDS011;10431;50.228;9.112;2023-06-26T10:54:17;21.00;;;9.65;;
20545;SDS011;10431;50.228;9.112;2023-06-26T10:56:53;30.52;;;9.45;;
20545;SDS011;10431;50.228;9.112;2023-06-26T10:59:24;23.30;;;9.32;;
20545;SDS011;10431;50.228;9.112;2023-06-26T11:04:44;22.85;;;9.07;;
20545;SDS011;10431;50.228;9.112;2023-06-26T11:09:53;20.80;;;9.55;;
20545;SDS011;10431;50.228;9.112;2023-06-26T11:12:36;19.98;;;9.55;;
20545;SDS011;10431;50.228;9.112;2023-06-26T11:15:12;23.67;;;9.85;;
20545;SDS011;10431;50.228;9.112;2023-06-26T11:17:40;26.73;;;9.30;;
20545;SDS011;10431;50.228;9.112;2023-06-26T11:20:08;20.80;;;9.27;;
20545;SDS011;10431;50.228;9.112;2023-06-26T11:22:37;21.27;;;9.25;;
20545;SDS011;10431;50.228;9.112;2023-06-26T11:25:05;19.40;;;9.50;;
20545;SDS011;10431;50.228;9.112;2023-06-26T11:27:39;22.02;;;8.88;;
20545;SDS011;10431;50.228;9.112;2023-06-26T11:30:07;19.60;;;9.43;;
20545;SDS011;10431;50.228;9.112;2023-06-26T11:32:38;21.67;;;9.13;;
20545;SDS011;10431;50.228;9.112;2023-06-26T11:35:05;21.83;;;9.32;;
20545;SDS011;10431;50.228;9.112;2023-06-26T11:37:32;19.38;;;9.30;;
20545;SDS011;10431;50.228;9.112;2023-06-26T11:39:59;21.52;;;9.25;;
20545;SDS011;10431;50.228;9.112;2023-06-26T11:42:41;18.92;;;9.48;;
20545;SDS011;10431;50.228;9.112;2023-06-26T11:45:07;21.70;;;9.05;;
20545;SDS011;10431;50.228;9.112;2023-06-26T11:47:33;18.92;;;8.75;;
20545;SDS011;10431;50.228;9.112;2023-06-26T11:49:59;23.50;;;9.25;;
20545;SDS011;10431;50.228;9.112;2023-06-26T11:52:32;19.38;;;8.93;;
20545;SDS011;10431;50.228;9.112;2023-06-26T11:54:58;19.05;;;8.80;;
20545;SDS011;10431;50.228;9.112;2023-06-26T11:57:25;19.15;;;9.48;;
20545;SDS011;10431;50.228;9.112;2023-06-26T11:59:51;22.00;;;8.80;;
20545;SDS011;10431;50.228;9.112;2023-06-26T12:02:17;20.02;;;8.93;;
20545;SDS011;10431;50.228;9.112;2023-06-26T12:04:44;19.00;;;9.05;;
20545;SDS011;10431;50.228;9.112;2023-06-26T12:07:11;16.55;;;8.23;;
20545;SDS011;10431;50.228;9.112;2023-06-26T12:09:39;24.02;;;9.70;;
20545;SDS011;10431;50.228;9.112;2023-06-26T12:12:07;19.55;;;9.20;;
20545;SDS011;10431;50.228;9.112;2023-06-26T12:14:34;17.02;;;8.57;;
20545;SDS011;10431;50.228;9.112;2023-06-26T12:17:04;23.63;;;9.18;;
20545;SDS011;10431;50.228;9.112;2023-06-26T12:19:31;19.17;;;8.50;;
20545;SDS011;10431;50.228;9.112;2023-06-26T12:21:59;13.70;;;8.73;;
20545;SDS011;10431;50.228;9.112;2023-06-26T12:24:32;17.73;;;8.98;;
20545;SDS011;10431;50.228;9.112;2023-06-26T12:26:59;18.25;;;9.20;;
20545;SDS011;10431;50.228;9.112;2023-06-26T12:29:32;21.30;;;9.13;;
20545;SDS011;10431;50.228;9.112;2023-06-26T12:31:59;17.67;;;8.73;;
20545;SDS011;10431;50.228;9.112;2023-06-26T12:34:33;19.30;;;8.23;;
20545;SDS011;10431;50.228;9.112;2023-06-26T12:37:02;16.83;;;8.73;;
20545;SDS011;10431;50.228;9.112;2023-06-26T12:42:23;16.30;;;8.55;;
20545;SDS011;10431;50.228;9.112;2023-06-26T12:44:51;18.33;;;8.30;;
20545;SDS011;10431;50.228;9.112;2023-06-26T12:47:23;17.35;;;9.07;;
20545;SDS011;10431;50.228;9.112;2023-06-26T12:49:51;16.35;;;8.60;;
20545;SDS011;10431;50.228;9.112;2023-06-26T12:52:18;16.70;;;8.75;;
20545;SDS011;10431;50.228;9.112;2023-06-26T12:54:45;15.35;;;8.95;;
20545;SDS011;10431;50.228;9.112;2023-06-26T12:57:12;15.82;;;8.38;;
20545;SDS011;10431;50.228;9.112;2023-06-26T12:59:42;13.07;;;7.72;;
20545;SDS011;10431;50.228;9.112;2023-06-26T13:02:08;15.27;;;8.05;;
20545;SDS011;10431;50.228;9.112;2023-06-26T13:04:37;18.73;;;8.82;;
20545;SDS011;10431;50.228;9.112;2023-06-26T13:07:06;17.08;;;8.45;;
20545;SDS011;10431;50.228;9.112;2023-06-26T13:09:33;17.27;;;8.57;;
20545;SDS011;10431;50.228;9.112;2023-06-26T13:12:01;13.98;;;8.23;;
20545;SDS011;10431;50.228;9.112;2023-06-26T13:14:30;13.57;;;7.97;;
20545;SDS011;10431;50.228;9.112;2023-06-26T13:16:57;16.80;;;8.63;;
20545;SDS011;10431;50.228;9.112;2023-06-26T13:19:23;18.42;;;8.30;;
20545;SDS011;10431;50.228;9.112;2023-06-26T13:21:50;15.40;;;8.38;;
20545;SDS011;10431;50.228;9.112;2023-06-26T13:24:16;17.08;;;8.20;;
20545;SDS011;10431;50.228;9.112;2023-06-26T13:26:42;14.70;;;7.82;;
20545;SDS011;10431;50.228;9.112;2023-06-26T13:29:08;18.10;;;8.35;;
20545;SDS011;10431;50.228;9.112;2023-06-26T13:31:35;15.82;;;8.55;;
20545;SDS011;10431;50.228;9.112;2023-06-26T13:34:02;14.35;;;7.93;;
20545;SDS011;10431;50.228;9.112;2023-06-26T13:36:31;15.20;;;7.13;;
20545;SDS011;10431;50.228;9.112;2023-06-26T13:38:59;11.52;;;7.63;;
20545;SDS011;10431;50.228;9.112;2023-06-26T13:41:26;14.68;;;8.50;;
20545;SDS011;10431;50.228;9.112;2023-06-26T13:43:53;14.00;;;7.82;;
20545;SDS011;10431;50.228;9.112;2023-06-26T13:46:19;13.38;;;7.88;;
20545;SDS011;10431;50.228;9.112;2023-06-26T13:48:46;14.00;;;7.32;;
20545;SDS011;10431;50.228;9.112;2023-06-26T13:51:12;17.35;;;8.05;;
20545;SDS011;10431;50.228;9.112;2023-06-26T13:53:39;11.52;;;7.78;;
20545;SDS011;10431;50.228;9.112;2023-06-26T13:56:05;10.80;;;7.45;;
20545;SDS011;10431;50.228;9.112;2023-06-26T13:58:34;13.30;;;7.72;;
20545;SDS011;10431;50.228;9.112;2023-06-26T14:01:01;12.45;;;7.97;;
20545;SDS011;10431;50.228;9.112;2023-06-26T14:03:28;12.90;;;7.53;;
20545;SDS011;10431;50.228;9.112;2023-06-26T14:05:54;15.85;;;8.30;;
20545;SDS011;10431;50.228;9.112;2023-06-26T14:08:21;16.25;;;7.65;;
20545;SDS011;10431;50.228;9.112;2023-06-26T14:10:47;12.27;;;7.95;;
20545;SDS011;10431;50.228;9.112;2023-06-26T14:13:13;14.05;;;7.88;;
20545;SDS011;10431;50.228;9.112;2023-06-26T14:15:41;11.77;;;7.32;;
20545;SDS011;10431;50.228;9.112;2023-06-26T14:18:08;14.73;;;7.35;;
20545;SDS011;10431;50.228;9.112;2023-06-26T14:20:34;11.18;;;7.32;;
20545;SDS011;10431;50.228;9.112;2023-06-26T14:23:01;15.00;;;7.63;;
20545;SDS011;10431;50.228;9.112;2023-06-26T14:25:28;13.38;;;7.80;;
20545;SDS011;10431;50.228;9.112;2023-06-26T14:27:57;12.20;;;6.90;;
20545;SDS011;10431;50.228;9.112;2023-06-26T14:30:24;11.35;;;7.32;;
20545;SDS011;10431;50.228;9.112;2023-06-26T14:32:50;13.73;;;7.55;;
20545;SDS011;10431;50.228;9.112;2023-06-26T14:35:16;13.18;;;8.25;;
20545;SDS011;10431;50.228;9.112;2023-06-26T14:37:43;13.45;;;7.25;;
20545;SDS011;10431;50.228;9.112;2023-06-26T14:40:10;10.48;;;7.07;;
20545;SDS011;10431;50.228;9.112;2023-06-26T14:42:36;10.68;;;6.35;;
20545;SDS011;10431;50.228;9.112;2023-06-26T14:45:03;11.07;;;6.60;;
20545;SDS011;10431;50.228;9.112;2023-06-26T14:47:29;10.20;;;6.07;;
20545;SDS011;10431;50.228;9.112;2023-06-26T14:49:55;11.45;;;6.05;;
20545;SDS011;10431;50.228;9.112;2023-06-26T14:52:21;10.80;;;5.43;;
20545;SDS011;10431;50.228;9.112;2023-06-26T14:54:48;9.20;;;5.13;;
20545;SDS011;10431;50.228;9.112;2023-06-26T14:57:14;12.73;;;5.80;;
20545;SDS011;10431;50.228;9.112;2023-06-26T14:59:40;11.75;;;6.13;;